Alger, OH

5:26 PM EDT on August 24, 2016 (GMT -0400)
Ada | | Change Station

Elev 912 ft 40.82 °N, 83.86 °W | Updated 1 second ago

Light Rain
Light Rain
78.3 °F
Feels Like 81 °F
N
0.0
Wind Variable Wind from SSE
Gusts 8.0 mph

Today
High -- | Low -- °F
--% Chance of Precip.
Yesterday
High -- | Low -- °F
Precip. -- in
Pressure 30.04 in
Visibility 10.0 miles
Clouds Mostly Cloudy 9000 ft
Mostly Cloudy 11000 ft
Heat Index 81 °F
Dew Point 74 °F
Humidity 86%
Rainfall 0.00 in
Snow Depth Not available.
6:54 AM 8:19 PM
Waning Gibbous, 53% visible
METAR KAOH 242053Z AUTO 19009KT 10SM -RA BKN090 BKN110 26/23 A3006 RMK AO2 RAB48 SLP173 P0000 60000 T02610228 56017
Pressure 30.04 in
Visibility 10.0 miles
Clouds Mostly Cloudy 9000 ft
Mostly Cloudy 11000 ft
Heat Index 81 °F
Dew Point 74 °F
Humidity 86%
Rainfall 0.00 in
Snow Depth Not available.
6:54 AM 8:19 PM
Waning Gibbous, 53% visible
METAR KAOH 242053Z AUTO 19009KT 10SM -RA BKN090 BKN110 26/23 A3006 RMK AO2 RAB48 SLP173 P0000 60000 T02610228 56017

10-Day Weather Forecast

Almanac

Astronomy

Aug. 24, 2016 Rise Set
Actual Time
Civil Twilight
Nautical Twilight
Astronomical Twilight
Moon
Length of Visible Light
Length of Day
Tomorrow will be .
, % of the Moon is Illuminated

Today's Extremes

State Highs State Lows

Community

WunderPhotos

Upload Photos

1,934,719 photos uploaded!

WunderBlog® & News

Nearby

Air Quality

  Air Quality AQ Index Pollutant
Not available.

Snow Depth

Station Depth Elevation

Earthquake Activity

City Distance Mag. Time & Date
Minimum magnitude displayed is 2.5.

Coastal Water Temperatures

Place Temperature

Stations

Nearby Weather Stations

Station Location Temp. Windchill Dew Point Humidity Wind Precip. Elev Updated Type
                   

Watches & Warnings

There are currently no watches in effect.